createdAt,value
2018-06-28T00:00:23.921Z,1018.9
2018-06-28T00:01:25.917Z,1019
2018-06-28T00:02:27.925Z,1019
2018-06-28T00:03:29.919Z,1018.9
2018-06-28T00:04:31.926Z,1018.9
2018-06-28T00:05:33.936Z,1018.9
2018-06-28T00:06:35.930Z,1018.9
2018-06-28T00:07:38.209Z,1018.9
2018-06-28T00:08:40.600Z,1018.9
2018-06-28T00:09:43.261Z,1018.9
2018-06-28T00:10:45.275Z,1018.9
2018-06-28T00:11:47.269Z,1018.9
2018-06-28T00:12:49.567Z,1018.9
2018-06-28T00:13:51.953Z,1018.9
2018-06-28T00:14:53.947Z,1018.9
2018-06-28T00:15:56.237Z,1018.9
2018-06-28T00:16:58.519Z,1018.9
2018-06-28T00:18:00.519Z,1018.9
2018-06-28T00:19:02.513Z,1018.9
2018-06-28T00:20:04.518Z,1018.9
2018-06-28T00:21:06.512Z,1018.9
2018-06-28T00:22:08.517Z,1018.9
2018-06-28T00:23:10.510Z,1018.8
2018-06-28T00:24:12.506Z,1018.8
2018-06-28T00:25:14.505Z,1018.8
2018-06-28T00:26:16.505Z,1018.8
2018-06-28T00:27:18.509Z,1018.8
2018-06-28T00:28:20.499Z,1018.8
2018-06-28T00:29:22.902Z,1018.8
2018-06-28T00:30:24.905Z,1018.8
2018-06-28T00:31:27.176Z,1018.8
2018-06-28T00:32:29.175Z,1018.8
2018-06-28T00:33:31.459Z,1018.8
2018-06-28T00:34:33.464Z,1018.8
2018-06-28T00:35:35.455Z,1018.8
2018-06-28T00:36:37.450Z,1018.7
2018-06-28T00:37:39.471Z,1018.8
2018-06-28T00:38:41.461Z,1018.8
2018-06-28T00:39:43.758Z,1018.8
2018-06-28T00:40:45.758Z,1018.8
2018-06-28T00:41:47.755Z,1018.7
2018-06-28T00:42:49.758Z,1018.7
2018-06-28T00:43:51.760Z,1018.7
2018-06-28T00:44:53.764Z,1018.8
2018-06-28T00:45:56.540Z,1018.8
2018-06-28T00:46:58.523Z,1018.7
2018-06-28T00:48:00.530Z,1018.7
2018-06-28T00:49:02.913Z,1018.7
2018-06-28T00:50:04.917Z,1018.7
2018-06-28T00:51:07.304Z,1018.7
2018-06-28T00:52:09.311Z,1018.7
2018-06-28T00:53:11.312Z,1018.7
2018-06-28T00:54:13.302Z,1018.7
2018-06-28T00:55:15.302Z,1018.7
2018-06-28T00:56:17.885Z,1018.6
2018-06-28T00:57:19.883Z,1018.6
2018-06-28T00:58:21.885Z,1018.6
2018-06-28T00:59:23.882Z,1018.7
2018-06-28T01:00:25.873Z,1018.6
2018-06-28T01:01:27.885Z,1018.7
2018-06-28T01:02:29.884Z,1018.6
2018-06-28T01:03:31.874Z,1018.6
2018-06-28T01:04:34.181Z,1018.6
2018-06-28T01:05:36.477Z,1018.7
2018-06-28T01:06:38.481Z,1018.6
2018-06-28T01:07:40.473Z,1018.7
2018-06-28T01:08:42.488Z,1018.7
2018-06-28T01:09:44.493Z,1018.6
2018-06-28T01:10:46.777Z,1018.7
2018-06-28T01:11:48.782Z,1018.7
2018-06-28T01:12:50.786Z,1018.7
2018-06-28T01:13:53.166Z,1018.7
2018-06-28T01:14:55.550Z,1018.7
2018-06-28T01:15:57.551Z,1018.6
2018-06-28T01:16:59.545Z,1018.6
2018-06-28T01:18:01.545Z,1018.7
2018-06-28T01:19:03.821Z,1018.6
2018-06-28T01:20:05.836Z,1018.6
2018-06-28T01:21:07.835Z,1018.6
2018-06-28T01:22:09.826Z,1018.6
2018-06-28T01:23:11.831Z,1018.6
2018-06-28T01:24:13.834Z,1018.6
2018-06-28T01:25:16.109Z,1018.6
2018-06-28T01:26:18.113Z,1018.5
2018-06-28T01:27:20.401Z,1018.5
2018-06-28T01:28:22.399Z,1018.5
2018-06-28T01:29:24.385Z,1018.5
2018-06-28T01:30:26.684Z,1018.6
2018-06-28T01:31:28.678Z,1018.6
2018-06-28T01:32:30.674Z,1018.6
2018-06-28T01:33:32.672Z,1018.6
2018-06-28T01:34:34.677Z,1018.6
2018-06-28T01:35:36.670Z,1018.6
2018-06-28T01:36:38.685Z,1018.6
2018-06-28T01:37:40.961Z,1018.6
2018-06-28T01:38:42.958Z,1018.6
2018-06-28T01:39:45.244Z,1018.6
2018-06-28T01:40:47.556Z,1018.7
2018-06-28T01:41:49.559Z,1018.6
2018-06-28T01:42:51.555Z,1018.6
2018-06-28T01:43:53.934Z,1018.7
2018-06-28T01:44:55.939Z,1018.6
2018-06-28T01:45:57.933Z,1018.6
2018-06-28T01:46:59.939Z,1018.6
2018-06-28T01:48:01.937Z,1018.7
2018-06-28T01:49:04.257Z,1018.6
2018-06-28T01:50:06.252Z,1018.6
2018-06-28T01:51:08.247Z,1018.6
2018-06-28T01:52:10.245Z,1018.6
2018-06-28T01:53:12.252Z,1018.6
2018-06-28T01:54:14.519Z,1018.6
2018-06-28T01:55:17.390Z,1018.6
2018-06-28T01:56:19.773Z,1018.6
2018-06-28T01:57:21.767Z,1018.7
2018-06-28T01:58:23.777Z,1018.7
2018-06-28T01:59:25.770Z,1018.7
2018-06-28T02:00:27.774Z,1018.7
2018-06-28T02:01:29.781Z,1018.7
2018-06-28T02:02:31.770Z,1018.7
2018-06-28T02:03:33.782Z,1018.7
2018-06-28T02:04:35.777Z,1018.7
2018-06-28T02:05:37.775Z,1018.7
2018-06-28T02:06:39.777Z,1018.7
2018-06-28T02:07:42.056Z,1018.6
2018-06-28T02:08:44.050Z,1018.7
2018-06-28T02:09:46.046Z,1018.6
2018-06-28T02:10:48.038Z,1018.6
2018-06-28T02:11:50.428Z,1018.6
2018-06-28T02:12:52.426Z,1018.6
2018-06-28T02:13:54.709Z,1018.6
2018-06-28T02:14:56.702Z,1018.6
2018-06-28T02:15:58.713Z,1018.6
2018-06-28T02:17:01.273Z,1018.6
2018-06-28T02:18:03.579Z,1018.6
2018-06-28T02:19:05.584Z,1018.6
2018-06-28T02:20:07.864Z,1018.7
2018-06-28T02:21:09.862Z,1018.6
2018-06-28T02:22:11.867Z,1018.6
2018-06-28T02:23:13.869Z,1018.6
2018-06-28T02:24:15.873Z,1018.7
2018-06-28T02:25:17.870Z,1018.6
2018-06-28T02:26:19.876Z,1018.6
2018-06-28T02:27:21.872Z,1018.6
2018-06-28T02:28:23.869Z,1018.6
2018-06-28T02:29:26.155Z,1018.6
2018-06-28T02:30:28.157Z,1018.6
2018-06-28T02:31:30.443Z,1018.6
2018-06-28T02:32:32.445Z,1018.6
2018-06-28T02:33:35.500Z,1018.5
2018-06-28T02:34:37.781Z,1018.6
2018-06-28T02:35:39.772Z,1018.6
2018-06-28T02:36:42.832Z,1018.6
2018-06-28T02:37:45.142Z,1018.6
2018-06-28T02:38:47.422Z,1018.5
2018-06-28T02:39:49.421Z,1018.5
2018-06-28T02:40:51.699Z,1018.6
2018-06-28T02:41:53.987Z,1018.6
2018-06-28T02:42:55.983Z,1018.5
2018-06-28T02:43:57.981Z,1018.5
2018-06-28T02:44:59.993Z,1018.5
2018-06-28T02:46:01.986Z,1018.5
2018-06-28T02:47:04.370Z,1018.5
2018-06-28T02:48:06.377Z,1018.5
2018-06-28T02:49:08.365Z,1018.5
2018-06-28T02:50:10.373Z,1018.5
2018-06-28T02:51:12.655Z,1018.5
2018-06-28T02:52:14.668Z,1018.5
2018-06-28T02:53:16.951Z,1018.5
2018-06-28T02:54:19.333Z,1018.5
2018-06-28T02:55:21.624Z,1018.5
2018-06-28T02:56:23.927Z,1018.5
2018-06-28T02:57:25.911Z,1018.5
2018-06-28T02:58:28.202Z,1018.6
2018-06-28T02:59:30.563Z,1018.5
2018-06-28T03:00:33.116Z,1018.5
2018-06-28T03:01:35.492Z,1018.6
2018-06-28T03:02:37.515Z,1018.5
2018-06-28T03:03:41.244Z,1018.5
2018-06-28T03:04:43.278Z,1018.5
2018-06-28T03:05:45.277Z,1018.5
2018-06-28T03:06:47.578Z,1018.5
2018-06-28T03:07:49.574Z,1018.5
2018-06-28T03:08:52.248Z,1018.5
2018-06-28T03:09:54.265Z,1018.5
2018-06-28T03:10:56.681Z,1018.5
2018-06-28T03:12:01.993Z,1018.5
2018-06-28T03:13:04.047Z,1018.5
2018-06-28T03:14:06.072Z,1018.5
2018-06-28T03:15:11.438Z,1018.5
2018-06-28T03:16:13.454Z,1018.5
2018-06-28T03:17:16.881Z,1018.5
2018-06-28T03:18:18.925Z,1018.5
2018-06-28T03:19:21.208Z,1018.4
2018-06-28T03:20:23.509Z,1018.5
2018-06-28T03:21:25.525Z,1018.5
2018-06-28T03:22:27.565Z,1018.4
2018-06-28T03:23:29.602Z,1018.5
2018-06-28T03:24:31.926Z,1018.5
2018-06-28T03:25:33.915Z,1018.5
2018-06-28T03:26:39.008Z,1018.5
2018-06-28T03:27:41.025Z,1018.5
2018-06-28T03:28:43.043Z,1018.5
2018-06-28T03:29:45.368Z,1018.5
2018-06-28T03:30:47.435Z,1018.4
2018-06-28T03:31:49.440Z,1018.5
2018-06-28T03:32:55.148Z,1018.5
2018-06-28T03:33:57.470Z,1018.5
2018-06-28T03:34:59.504Z,1018.5
2018-06-28T03:36:01.552Z,1018.5
2018-06-28T03:37:04.159Z,1018.5
2018-06-28T03:38:09.241Z,1018.4
2018-06-28T03:39:11.278Z,1018.5
2018-06-28T03:40:14.514Z,1018.4
2018-06-28T03:41:19.516Z,1018.4
2018-06-28T03:42:21.521Z,1018.4
2018-06-28T03:43:23.520Z,1018.5
2018-06-28T03:44:25.513Z,1018.5
2018-06-28T03:45:27.791Z,1018.5
2018-06-28T03:46:29.789Z,1018.5
2018-06-28T03:47:32.066Z,1018.4
2018-06-28T03:48:34.070Z,1018.5
2018-06-28T03:49:36.354Z,1018.5
2018-06-28T03:50:38.348Z,1018.4
2018-06-28T03:51:40.339Z,1018.4
2018-06-28T03:52:42.345Z,1018.4
2018-06-28T03:53:44.342Z,1018.4
2018-06-28T03:54:46.350Z,1018.4
2018-06-28T03:55:48.339Z,1018.3
2018-06-28T03:56:50.343Z,1018.4
2018-06-28T03:57:52.624Z,1018.4
2018-06-28T03:58:54.617Z,1018.4
2018-06-28T03:59:56.618Z,1018.4
2018-06-28T04:00:58.621Z,1018.4
2018-06-28T04:02:00.618Z,1018.5
2018-06-28T04:03:02.623Z,1018.5
2018-06-28T04:04:04.902Z,1018.5
2018-06-28T04:05:06.904Z,1018.5
2018-06-28T04:06:08.905Z,1018.6
2018-06-28T04:07:10.910Z,1018.5
2018-06-28T04:08:12.899Z,1018.6
2018-06-28T04:09:15.188Z,1018.5
2018-06-28T04:10:17.192Z,1018.5
2018-06-28T04:11:19.185Z,1018.5
2018-06-28T04:12:21.187Z,1018.5
2018-06-28T04:13:23.181Z,1018.5
2018-06-28T04:14:25.166Z,1018.5
2018-06-28T04:15:27.174Z,1018.5
2018-06-28T04:16:29.161Z,1018.5
2018-06-28T04:17:31.167Z,1018.5
2018-06-28T04:18:33.451Z,1018.5
2018-06-28T04:19:35.451Z,1018.5
2018-06-28T04:20:37.452Z,1018.5
2018-06-28T04:21:39.456Z,1018.4
2018-06-28T04:22:41.458Z,1018.4
2018-06-28T04:23:43.471Z,1018.5
2018-06-28T04:24:45.748Z,1018.5
2018-06-28T04:25:48.039Z,1018.5
2018-06-28T04:26:50.033Z,1018.5
2018-06-28T04:27:52.023Z,1018.5
2018-06-28T04:28:54.024Z,1018.5
2018-06-28T04:29:56.028Z,1018.5
2018-06-28T04:30:58.022Z,1018.5
2018-06-28T04:32:00.061Z,1018.5
2018-06-28T04:33:02.723Z,1018.5
2018-06-28T04:34:04.724Z,1018.5
2018-06-28T04:35:06.719Z,1018.5
2018-06-28T04:36:08.713Z,1018.4
2018-06-28T04:37:10.730Z,1018.5
2018-06-28T04:38:12.733Z,1018.4
2018-06-28T04:39:14.720Z,1018.5
2018-06-28T04:40:17.111Z,1018.4
2018-06-28T04:41:19.392Z,1018.4
2018-06-28T04:42:21.394Z,1018.4
2018-06-28T04:43:23.701Z,1018.4
2018-06-28T04:44:25.699Z,1018.4
2018-06-28T04:45:27.707Z,1018.4
2018-06-28T04:46:29.712Z,1018.4
2018-06-28T04:47:31.710Z,1018.4
2018-06-28T04:48:33.707Z,1018.4
2018-06-28T04:49:35.710Z,1018.4
2018-06-28T04:50:37.711Z,1018.4
2018-06-28T04:51:39.707Z,1018.3
2018-06-28T04:52:41.700Z,1018.3
2018-06-28T04:53:44.093Z,1018.3
2018-06-28T04:54:46.088Z,1018.3
2018-06-28T04:55:48.089Z,1018.3
2018-06-28T04:56:50.096Z,1018.2
2018-06-28T04:57:52.094Z,1018.2
2018-06-28T04:58:54.435Z,1018.2
2018-06-28T04:59:56.380Z,1018.3
2018-06-28T05:00:58.672Z,1018.2
2018-06-28T05:02:00.674Z,1018.2
2018-06-28T05:03:03.524Z,1018.2
2018-06-28T05:04:05.539Z,1018.3
2018-06-28T05:05:07.808Z,1018.3
2018-06-28T05:06:10.126Z,1018.3
2018-06-28T05:07:12.509Z,1018.3
2018-06-28T05:08:14.509Z,1018.3
2018-06-28T05:09:16.505Z,1018.3
2018-06-28T05:10:18.498Z,1018.3
2018-06-28T05:11:20.497Z,1018.3
2018-06-28T05:12:22.796Z,1018.3
2018-06-28T05:13:24.786Z,1018.3
2018-06-28T05:14:26.792Z,1018.3
2018-06-28T05:15:29.174Z,1018.3
2018-06-28T05:16:31.174Z,1018.3
2018-06-28T05:17:33.835Z,1018.3
2018-06-28T05:18:36.224Z,1018.2
2018-06-28T05:19:38.900Z,1018.3
2018-06-28T05:20:40.902Z,1018.3
2018-06-28T05:21:42.894Z,1018.3
2018-06-28T05:22:44.892Z,1018.3
2018-06-28T05:23:46.896Z,1018.2
2018-06-28T05:24:48.894Z,1018.2
2018-06-28T05:25:50.905Z,1018.2
2018-06-28T05:26:52.892Z,1018.2
2018-06-28T05:27:54.894Z,1018.2
2018-06-28T05:28:57.195Z,1018.2
2018-06-28T05:29:59.584Z,1018.2
2018-06-28T05:31:01.899Z,1018.2
2018-06-28T05:32:04.473Z,1018.2
2018-06-28T05:33:06.928Z,1018.2
2018-06-28T05:34:09.440Z,1018.2
2018-06-28T05:35:12.737Z,1018.2
2018-06-28T05:36:16.096Z,1018.2
2018-06-28T05:37:19.408Z,1018.2
2018-06-28T05:38:22.846Z,1018.2
2018-06-28T05:39:26.397Z,1018.2
2018-06-28T05:40:29.852Z,1018.2
2018-06-28T05:41:33.425Z,1018.2
2018-06-28T05:42:36.735Z,1018.2
2018-06-28T05:43:39.612Z,1018.2
2018-06-28T05:44:43.286Z,1018.2
2018-06-28T05:45:46.465Z,1018.2
2018-06-28T05:46:48.822Z,1018.2
2018-06-28T05:47:51.987Z,1018.3
2018-06-28T05:48:55.503Z,1018.2
2018-06-28T05:49:59.247Z,1018.2
2018-06-28T05:51:02.280Z,1018.2
2018-06-28T05:52:05.438Z,1018.2
2018-06-28T05:53:08.247Z,1018.3
2018-06-28T05:54:11.820Z,1018.3
2018-06-28T05:55:14.959Z,1018.2
2018-06-28T05:56:18.208Z,1018.3
2018-06-28T05:57:21.154Z,1018.2
2018-06-28T05:58:24.709Z,1018.2
2018-06-28T05:59:27.759Z,1018.2
2018-06-28T06:00:31.229Z,1018.3
2018-06-28T06:01:34.399Z,1018.2
2018-06-28T06:02:37.232Z,1018.3
2018-06-28T06:03:39.926Z,1018.3
2018-06-28T06:04:42.556Z,1018.3
2018-06-28T06:05:45.873Z,1018.3
2018-06-28T06:06:49.345Z,1018.2
2018-06-28T06:07:51.785Z,1018.3
2018-06-28T06:08:54.498Z,1018.3
2018-06-28T06:09:57.808Z,1018.3
2018-06-28T06:11:01.275Z,1018.3
2018-06-28T06:12:05.030Z,1018.3
2018-06-28T06:13:07.712Z,1018.3
2018-06-28T06:14:11.075Z,1018.3
2018-06-28T06:15:13.619Z,1018.3
2018-06-28T06:16:17.628Z,1018.3
2018-06-28T06:17:20.763Z,1018.2
2018-06-28T06:18:23.123Z,1018.2
2018-06-28T06:19:25.706Z,1018.2
2018-06-28T06:20:28.156Z,1018.2
2018-06-28T06:21:30.599Z,1018.2
2018-06-28T06:22:33.347Z,1018.2
2018-06-28T06:23:35.415Z,1018.2
2018-06-28T06:24:37.845Z,1018.2
2018-06-28T06:25:40.172Z,1018.2
2018-06-28T06:26:43.108Z,1018.2
2018-06-28T06:27:46.575Z,1018.2
2018-06-28T06:28:50.044Z,1018.2
2018-06-28T06:29:53.071Z,1018.3
2018-06-28T06:30:55.620Z,1018.2
2018-06-28T06:31:57.713Z,1018.2
2018-06-28T06:33:00.070Z,1018.2
2018-06-28T06:34:04.741Z,1018.2
2018-06-28T06:35:09.105Z,1018.2
2018-06-28T06:36:11.481Z,1018.2
2018-06-28T06:38:00.025Z,1018.2
2018-06-28T06:39:02.584Z,1018.1
2018-06-28T06:40:04.961Z,1018.1
2018-06-28T06:41:07.843Z,1018.1
2018-06-28T06:42:11.228Z,1018.2
2018-06-28T06:43:15.010Z,1018.2
2018-06-28T06:44:18.105Z,1018.2
2018-06-28T06:45:21.681Z,1018.1
2018-06-28T06:46:24.105Z,1018.1
2018-06-28T06:47:26.564Z,1018.1
2018-06-28T06:48:29.971Z,1018.1
2018-06-28T06:49:32.827Z,1018.1
2018-06-28T06:50:35.110Z,1018.1
2018-06-28T06:51:39.198Z,1018.1
2018-06-28T06:52:41.745Z,1018
2018-06-28T06:53:44.732Z,1018
2018-06-28T06:54:48.138Z,1018.1
2018-06-28T06:55:51.208Z,1018.1
2018-06-28T06:56:54.128Z,1018.1
2018-06-28T06:57:56.765Z,1018.1
2018-06-28T06:59:00.868Z,1018.1
2018-06-28T07:00:04.335Z,1018
2018-06-28T07:01:06.425Z,1018
2018-06-28T07:02:08.762Z,1018
2018-06-28T07:03:12.020Z,1018
2018-06-28T07:04:15.174Z,1018
2018-06-28T07:05:19.269Z,1018
2018-06-28T07:06:21.613Z,1018
2018-06-28T07:07:24.848Z,1018
2018-06-28T07:08:27.790Z,1018
2018-06-28T07:09:29.882Z,1018
2018-06-28T07:10:32.203Z,1018
2018-06-28T07:11:34.906Z,1018
2018-06-28T07:12:37.184Z,1017.9
2018-06-28T07:13:41.279Z,1018
2018-06-28T07:14:44.288Z,1018
2018-06-28T07:15:47.191Z,1018
2018-06-28T07:16:49.620Z,1018
2018-06-28T07:17:53.113Z,1018
2018-06-28T07:18:56.554Z,1018
2018-06-28T07:19:59.889Z,1018
2018-06-28T07:21:03.447Z,1018
2018-06-28T07:22:06.113Z,1017.9
2018-06-28T07:23:09.505Z,1018
2018-06-28T07:24:13.286Z,1017.9
2018-06-28T07:25:16.086Z,1017.9
2018-06-28T07:26:18.451Z,1017.9
2018-06-28T07:27:21.333Z,1017.9
2018-06-28T07:28:24.772Z,1017.9
2018-06-28T07:29:28.156Z,1017.9
2018-06-28T07:30:31.209Z,1017.9
2018-06-28T07:31:34.167Z,1017.8
2018-06-28T07:32:36.830Z,1017.9
2018-06-28T07:33:39.852Z,1017.8
2018-06-28T07:34:43.198Z,1017.8
2018-06-28T07:35:45.786Z,1017.8
2018-06-28T07:36:49.364Z,1017.8
2018-06-28T07:37:52.655Z,1017.8
2018-06-28T07:38:55.151Z,1017.8
2018-06-28T07:39:58.492Z,1017.9
2018-06-28T07:41:00.928Z,1017.8
2018-06-28T07:42:04.475Z,1017.8
2018-06-28T07:43:07.148Z,1017.8
2018-06-28T07:44:09.558Z,1017.9
2018-06-28T07:45:12.440Z,1017.9
2018-06-28T07:46:15.004Z,1017.9
2018-06-28T07:47:17.537Z,1017.9
2018-06-28T07:48:21.234Z,1017.9
2018-06-28T07:49:25.479Z,1017.9
2018-06-28T07:50:28.021Z,1017.9
2018-06-28T07:51:31.848Z,1017.8
2018-06-28T07:52:35.108Z,1017.8
2018-06-28T07:53:38.171Z,1017.8
2018-06-28T07:54:40.716Z,1017.8
2018-06-28T07:55:44.051Z,1017.8
2018-06-28T07:56:47.732Z,1017.8
2018-06-28T07:57:50.953Z,1017.8
2018-06-28T07:58:53.508Z,1017.8
2018-06-28T07:59:56.855Z,1017.7
2018-06-28T08:01:00.240Z,1017.7
2018-06-28T08:02:02.876Z,1017.7
2018-06-28T08:03:05.624Z,1017.7
2018-06-28T08:04:08.741Z,1017.7
2018-06-28T08:05:12.288Z,1017.7
2018-06-28T08:06:15.001Z,1017.7
2018-06-28T08:07:18.201Z,1017.7
2018-06-28T08:08:21.569Z,1017.7
2018-06-28T08:09:24.034Z,1017.7
2018-06-28T08:10:26.907Z,1017.7
2018-06-28T08:11:29.514Z,1017.7
2018-06-28T08:12:32.641Z,1017.7
2018-06-28T08:13:35.049Z,1017.7
2018-06-28T08:14:38.003Z,1017.7
2018-06-28T08:15:41.068Z,1017.7
2018-06-28T08:16:44.272Z,1017.7
2018-06-28T08:17:47.122Z,1017.7
2018-06-28T08:18:49.390Z,1017.7
2018-06-28T08:19:52.099Z,1017.7
2018-06-28T08:20:55.119Z,1017.7
2018-06-28T08:21:57.437Z,1017.7
2018-06-28T08:22:59.943Z,1017.7
2018-06-28T08:24:03.078Z,1017.7
2018-06-28T08:25:07.327Z,1017.7
2018-06-28T08:26:10.757Z,1017.7
2018-06-28T08:27:13.904Z,1017.7
2018-06-28T08:28:16.945Z,1017.7
2018-06-28T08:29:19.758Z,1017.7
2018-06-28T08:30:22.510Z,1017.7
2018-06-28T08:31:26.254Z,1017.7
2018-06-28T08:32:29.647Z,1017.7
2018-06-28T08:33:32.769Z,1017.7
2018-06-28T08:34:35.821Z,1017.6
2018-06-28T08:35:38.883Z,1017.7
2018-06-28T08:36:41.243Z,1017.7
2018-06-28T08:37:44.293Z,1017.6
2018-06-28T08:38:47.341Z,1017.6
2018-06-28T08:39:49.938Z,1017.6
2018-06-28T08:40:52.708Z,1017.6
2018-06-28T08:41:54.838Z,1017.6
2018-06-28T08:42:58.043Z,1017.6
2018-06-28T08:44:01.321Z,1017.6
2018-06-28T08:45:04.585Z,1017.6
2018-06-28T08:46:08.358Z,1017.6
2018-06-28T08:47:10.930Z,1017.6
2018-06-28T08:48:13.516Z,1017.6
2018-06-28T08:49:16.617Z,1017.5
2018-06-28T08:50:20.052Z,1017.6
2018-06-28T08:51:24.698Z,1017.6
2018-06-28T08:52:26.930Z,1017.6
2018-06-28T08:53:29.177Z,1017.6
2018-06-28T08:54:32.090Z,1017.5
2018-06-28T08:55:35.245Z,1017.5
2018-06-28T08:56:38.575Z,1017.5
2018-06-28T08:57:41.746Z,1017.5
2018-06-28T08:58:45.294Z,1017.4
2018-06-28T08:59:47.427Z,1017.5
2018-06-28T09:00:49.796Z,1017.4
2018-06-28T09:01:52.696Z,1017.5
2018-06-28T09:02:56.068Z,1017.4
2018-06-28T09:03:59.387Z,1017.5
2018-06-28T09:05:02.073Z,1017.4
2018-06-28T09:06:05.116Z,1017.4
2018-06-28T09:07:07.989Z,1017.5
2018-06-28T09:08:11.482Z,1017.4
2018-06-28T09:09:14.501Z,1017.5
2018-06-28T09:10:17.671Z,1017.4
2018-06-28T09:11:20.927Z,1017.5
2018-06-28T09:12:24.486Z,1017.5
2018-06-28T09:13:27.505Z,1017.5
2018-06-28T09:14:30.622Z,1017.5
2018-06-28T09:15:33.420Z,1017.5
2018-06-28T09:16:36.741Z,1017.5
2018-06-28T09:17:39.900Z,1017.5
2018-06-28T09:18:42.516Z,1017.5
2018-06-28T09:19:46.205Z,1017.4
2018-06-28T09:20:48.887Z,1017.4
2018-06-28T09:21:51.177Z,1017.4
2018-06-28T09:22:53.889Z,1017.4
2018-06-28T09:23:56.606Z,1017.4
2018-06-28T09:25:00.008Z,1017.3
2018-06-28T09:26:02.664Z,1017.3
2018-06-28T09:27:05.875Z,1017.3
2018-06-28T09:28:08.402Z,1017.4
2018-06-28T09:29:10.656Z,1017.3
2018-06-28T09:30:12.901Z,1017.3
2018-06-28T09:31:15.208Z,1017.3
2018-06-28T09:32:18.203Z,1017.3
2018-06-28T09:33:21.149Z,1017.3
2018-06-28T09:34:24.212Z,1017.3
2018-06-28T09:35:26.389Z,1017.3
2018-06-28T09:36:28.924Z,1017.3
2018-06-28T09:37:32.151Z,1017.3
2018-06-28T09:38:35.021Z,1017.3
2018-06-28T09:39:37.375Z,1017.3
2018-06-28T09:40:40.361Z,1017.2
2018-06-28T09:41:42.572Z,1017.3
2018-06-28T09:42:45.299Z,1017.3
2018-06-28T09:43:47.718Z,1017.2
2018-06-28T09:44:50.322Z,1017.3
2018-06-28T09:45:54.405Z,1017.2
2018-06-28T09:46:57.655Z,1017.3
2018-06-28T09:48:00.380Z,1017.3
2018-06-28T09:49:03.011Z,1017.2
2018-06-28T09:50:05.988Z,1017.2
2018-06-28T09:51:08.974Z,1017.2
2018-06-28T09:52:11.414Z,1017.2
2018-06-28T09:53:14.813Z,1017.2
2018-06-28T09:54:17.710Z,1017.2
2018-06-28T09:55:21.414Z,1017.1
2018-06-28T09:56:26.138Z,1017.1
2018-06-28T09:57:29.143Z,1017.1
2018-06-28T09:58:32.228Z,1017.1
2018-06-28T09:59:34.603Z,1017.1
2018-06-28T10:00:37.426Z,1017.1
2018-06-28T10:01:39.339Z,1017.1
2018-06-28T10:02:41.945Z,1017.1
2018-06-28T10:03:44.619Z,1017.1
2018-06-28T10:04:47.058Z,1017.1
2018-06-28T10:05:49.125Z,1017
2018-06-28T10:06:51.187Z,1017.1
2018-06-28T10:07:56.279Z,1017.1
2018-06-28T10:08:58.644Z,1017.1
2018-06-28T10:10:00.712Z,1017.1
2018-06-28T10:11:02.776Z,1017.1
2018-06-28T10:12:04.938Z,1017.1
2018-06-28T10:13:07.415Z,1017
2018-06-28T10:14:09.823Z,1017
2018-06-28T10:15:13.018Z,1016.9
2018-06-28T10:16:16.456Z,1016.9
2018-06-28T10:17:18.472Z,1017
2018-06-28T10:18:21.934Z,1016.9
2018-06-28T10:19:25.371Z,1016.9
2018-06-28T10:20:27.983Z,1017
2018-06-28T10:21:30.332Z,1016.9
2018-06-28T10:22:32.393Z,1016.9
2018-06-28T10:23:34.441Z,1017
2018-06-28T10:24:36.512Z,1016.8
2018-06-28T10:25:38.755Z,1016.9
2018-06-28T10:26:44.859Z,1016.9
2018-06-28T10:29:19.070Z,1016.9
2018-06-28T10:30:21.137Z,1016.9
2018-06-28T10:31:23.502Z,1016.8
2018-06-28T10:32:27.718Z,1016.8
2018-06-28T10:33:33.367Z,1016.8
2018-06-28T10:34:36.711Z,1016.8
2018-06-28T10:35:40.152Z,1016.8
2018-06-28T10:36:43.250Z,1016.8
2018-06-28T10:37:46.535Z,1016.8
2018-06-28T10:38:50.924Z,1016.8
2018-06-28T10:39:54.394Z,1016.8
2018-06-28T10:40:57.632Z,1016.7
2018-06-28T10:42:01.788Z,1016.7
2018-06-28T10:43:05.255Z,1016.7
2018-06-28T10:44:07.763Z,1016.7
2018-06-28T10:45:10.990Z,1016.7
2018-06-28T10:46:14.048Z,1016.7
2018-06-28T10:47:16.473Z,1016.7
2018-06-28T10:48:19.644Z,1016.6
2018-06-28T10:49:22.545Z,1016.6
2018-06-28T10:50:25.853Z,1016.6
2018-06-28T10:51:28.768Z,1016.6
2018-06-28T10:52:31.028Z,1016.6
2018-06-28T10:53:33.288Z,1016.6
2018-06-28T10:54:35.842Z,1016.6
2018-06-28T10:55:38.697Z,1016.6
2018-06-28T10:56:42.079Z,1016.5
2018-06-28T10:57:44.679Z,1016.5
2018-06-28T10:58:47.314Z,1016.5
2018-06-28T10:59:50.148Z,1016.5
2018-06-28T11:00:53.401Z,1016.5
2018-06-28T11:01:56.550Z,1016.5
2018-06-28T11:02:59.602Z,1016.5
2018-06-28T11:04:03.239Z,1016.5
2018-06-28T11:05:06.225Z,1016.4
2018-06-28T11:06:08.672Z,1016.5
2018-06-28T11:07:11.564Z,1016.5
2018-06-28T11:08:14.183Z,1016.4
2018-06-28T11:09:17.249Z,1016.4
2018-06-28T11:10:19.673Z,1016.4
2018-06-28T11:11:22.102Z,1016.4
2018-06-28T11:12:25.504Z,1016.4
2018-06-28T11:13:28.560Z,1016.5
2018-06-28T11:14:31.745Z,1016.4
2018-06-28T11:15:34.383Z,1016.4
2018-06-28T11:16:36.976Z,1016.4
2018-06-28T11:17:39.638Z,1016.3
2018-06-28T11:18:42.135Z,1016.3
2018-06-28T11:19:44.984Z,1016.3
2018-06-28T11:20:48.302Z,1016.3
2018-06-28T11:21:51.019Z,1016.3
2018-06-28T11:22:53.678Z,1016.2
2018-06-28T11:23:56.428Z,1016.2
2018-06-28T11:24:59.781Z,1016.2
2018-06-28T11:26:03.282Z,1016.2
2018-06-28T11:27:06.268Z,1016.1
2018-06-28T11:28:09.638Z,1016.2
2018-06-28T11:29:12.219Z,1016.1
2018-06-28T11:30:15.792Z,1016.1
2018-06-28T11:31:18.833Z,1016.1
2018-06-28T11:32:20.949Z,1016.1
2018-06-28T11:33:23.527Z,1016.1
2018-06-28T11:34:26.107Z,1016.1
2018-06-28T11:35:28.870Z,1016.1
2018-06-28T11:36:31.932Z,1016.1
2018-06-28T11:37:34.447Z,1016
2018-06-28T11:38:37.998Z,1016
2018-06-28T11:39:40.299Z,1016
2018-06-28T11:40:42.827Z,1016
2018-06-28T11:41:46.381Z,1016
2018-06-28T11:42:49.194Z,1016
2018-06-28T11:43:52.435Z,1016
2018-06-28T11:44:55.132Z,1016
2018-06-28T11:45:57.566Z,1016
2018-06-28T11:47:00.404Z,1016
2018-06-28T11:48:02.986Z,1016
2018-06-28T11:49:06.748Z,1015.9
2018-06-28T11:50:09.521Z,1016
2018-06-28T11:51:11.705Z,1016
2018-06-28T11:52:13.877Z,1016
2018-06-28T11:53:16.468Z,1015.9
2018-06-28T11:54:18.953Z,1015.9
2018-06-28T11:55:21.377Z,1015.9
2018-06-28T11:56:24.761Z,1015.9
2018-06-28T11:57:27.688Z,1015.9
2018-06-28T11:58:31.002Z,1015.9
2018-06-28T11:59:33.977Z,1015.9
2018-06-28T12:00:37.471Z,1015.9
2018-06-28T12:01:40.519Z,1015.9
2018-06-28T12:02:43.642Z,1015.8
2018-06-28T12:03:46.853Z,1015.8
2018-06-28T12:04:49.956Z,1015.8
2018-06-28T12:05:52.482Z,1015.8
2018-06-28T12:06:56.081Z,1015.8
2018-06-28T12:08:00.090Z,1015.9
2018-06-28T12:09:03.487Z,1015.8
2018-06-28T12:10:06.834Z,1015.8
2018-06-28T12:11:09.827Z,1015.8
2018-06-28T12:12:12.791Z,1015.8
2018-06-28T12:13:15.529Z,1015.8
2018-06-28T12:14:19.354Z,1015.8
2018-06-28T12:15:23.157Z,1015.7
2018-06-28T12:16:25.992Z,1015.7
2018-06-28T12:17:29.280Z,1015.7
2018-06-28T12:18:32.328Z,1015.7
2018-06-28T12:19:35.092Z,1015.7
2018-06-28T12:20:38.187Z,1015.7
2018-06-28T12:21:40.726Z,1015.6
2018-06-28T12:22:44.264Z,1015.7
2018-06-28T12:23:46.827Z,1015.6
2018-06-28T12:24:49.988Z,1015.6
2018-06-28T12:25:52.818Z,1015.6
2018-06-28T12:26:55.874Z,1015.5
2018-06-28T12:27:59.327Z,1015.5
2018-06-28T12:29:02.565Z,1015.5
2018-06-28T12:30:05.196Z,1015.5
2018-06-28T12:31:08.430Z,1015.5
2018-06-28T12:32:11.775Z,1015.5
2018-06-28T12:33:14.994Z,1015.5
2018-06-28T12:34:18.442Z,1015.5
2018-06-28T12:35:21.808Z,1015.4
2018-06-28T12:36:25.118Z,1015.4
2018-06-28T12:37:28.356Z,1015.4
2018-06-28T12:38:32.097Z,1015.4
2018-06-28T12:39:34.776Z,1015.5
2018-06-28T12:40:38.103Z,1015.4
2018-06-28T12:41:40.758Z,1015.4
2018-06-28T12:42:44.000Z,1015.4
2018-06-28T12:43:47.326Z,1015.4
2018-06-28T12:44:50.103Z,1015.3
2018-06-28T12:45:52.843Z,1015.3
2018-06-28T12:46:55.792Z,1015.3
2018-06-28T12:47:59.120Z,1015.4
2018-06-28T12:49:02.833Z,1015.3
2018-06-28T12:50:06.360Z,1015.3
2018-06-28T12:51:09.644Z,1015.3
2018-06-28T12:52:12.565Z,1015.3
2018-06-28T12:53:15.910Z,1015.3
2018-06-28T12:54:18.401Z,1015.3
2018-06-28T12:55:21.144Z,1015.2
2018-06-28T12:56:23.474Z,1015.3
2018-06-28T12:57:26.750Z,1015.2
2018-06-28T12:58:29.160Z,1015.2
2018-06-28T12:59:32.010Z,1015.2
2018-06-28T13:00:35.502Z,1015.2
2018-06-28T13:01:38.910Z,1015.2
2018-06-28T13:02:42.260Z,1015.2
2018-06-28T13:03:45.210Z,1015.2
2018-06-28T13:04:47.991Z,1015.1
2018-06-28T13:05:51.428Z,1015.2
2018-06-28T13:06:54.153Z,1015.1